sensor_id;sensor_type;location;lat;lon;timestamp;pressure;altitude;pressure_sealevel;temperature;humidity
84020;BME280;74102;49.084;13.694;2023-12-20T00:00:55;93023.63;;;5.74;65.85
84020;BME280;74102;49.084;13.694;2023-12-20T00:03:21;93028.66;;;5.76;66.91
84020;BME280;74102;49.084;13.694;2023-12-20T00:05:47;93011.13;;;5.78;66.53
84020;BME280;74102;49.084;13.694;2023-12-20T00:08:13;93013.47;;;5.81;67.48
84020;BME280;74102;49.084;13.694;2023-12-20T00:10:38;93021.88;;;5.83;67.52
84020;BME280;74102;49.084;13.694;2023-12-20T00:13:03;93026.81;;;5.86;66.93
84020;BME280;74102;49.084;13.694;2023-12-20T00:15:29;93024.88;;;5.88;68.64
84020;BME280;74102;49.084;13.694;2023-12-20T00:17:54;93009.00;;;5.91;68.98
84020;BME280;74102;49.084;13.694;2023-12-20T00:20:19;93013.88;;;5.94;69.58
84020;BME280;74102;49.084;13.694;2023-12-20T00:22:45;93005.81;;;5.97;69.09
84020;BME280;74102;49.084;13.694;2023-12-20T00:25:10;92994.13;;;6.01;69.65
84020;BME280;74102;49.084;13.694;2023-12-20T00:27:36;93013.78;;;6.04;69.79
84020;BME280;74102;49.084;13.694;2023-12-20T00:30:01;93005.03;;;6.05;69.33
84020;BME280;74102;49.084;13.694;2023-12-20T00:32:26;93008.44;;;6.05;70.81
84020;BME280;74102;49.084;13.694;2023-12-20T00:34:52;93008.28;;;6.07;70.31
84020;BME280;74102;49.084;13.694;2023-12-20T00:37:17;93012.38;;;6.09;70.80
84020;BME280;74102;49.084;13.694;2023-12-20T00:39:42;93005.22;;;6.11;70.70
84020;BME280;74102;49.084;13.694;2023-12-20T00:42:08;93011.75;;;6.15;69.87
84020;BME280;74102;49.084;13.694;2023-12-20T00:44:33;93002.00;;;6.17;70.25
84020;BME280;74102;49.084;13.694;2023-12-20T00:46:58;93003.66;;;6.18;69.82
84020;BME280;74102;49.084;13.694;2023-12-20T00:49:24;92977.50;;;6.20;70.27
84020;BME280;74102;49.084;13.694;2023-12-20T00:51:49;92967.94;;;6.20;70.48
84020;BME280;74102;49.084;13.694;2023-12-20T00:54:17;92967.94;;;6.20;69.29
84020;BME280;74102;49.084;13.694;2023-12-20T00:56:42;92968.75;;;6.21;68.62
84020;BME280;74102;49.084;13.694;2023-12-20T00:59:08;92975.09;;;6.18;70.71
84020;BME280;74102;49.084;13.694;2023-12-20T01:01:33;92975.09;;;6.18;70.12
84020;BME280;74102;49.084;13.694;2023-12-20T01:03:58;92968.25;;;6.17;69.87
84020;BME280;74102;49.084;13.694;2023-12-20T01:06:24;92959.50;;;6.18;70.54
84020;BME280;74102;49.084;13.694;2023-12-20T01:08:49;92968.25;;;6.17;70.34
84020;BME280;74102;49.084;13.694;2023-12-20T01:11:15;92978.66;;;6.17;70.28
84020;BME280;74102;49.084;13.694;2023-12-20T01:13:40;92976.41;;;6.22;69.58
84020;BME280;74102;49.084;13.694;2023-12-20T01:16:06;92971.88;;;6.24;69.76
84020;BME280;74102;49.084;13.694;2023-12-20T01:18:31;92968.31;;;6.25;69.35
84020;BME280;74102;49.084;13.694;2023-12-20T01:21:01;92967.63;;;6.23;68.64
84020;BME280;74102;49.084;13.694;2023-12-20T01:23:27;92959.19;;;6.21;68.06
84020;BME280;74102;49.084;13.694;2023-12-20T01:25:52;92962.63;;;6.22;69.67
84020;BME280;74102;49.084;13.694;2023-12-20T01:28:19;92966.81;;;6.23;69.68
84020;BME280;74102;49.084;13.694;2023-12-20T01:30:44;92951.91;;;6.25;69.26
84020;BME280;74102;49.084;13.694;2023-12-20T01:33:10;92970.91;;;6.25;70.10
84020;BME280;74102;49.084;13.694;2023-12-20T01:35:35;92972.19;;;6.21;70.92
84020;BME280;74102;49.084;13.694;2023-12-20T01:38:00;92960.63;;;6.16;71.36
84020;BME280;74102;49.084;13.694;2023-12-20T01:40:26;92985.59;;;6.09;72.12
84020;BME280;74102;49.084;13.694;2023-12-20T01:43:01;92967.56;;;6.07;71.43
84020;BME280;74102;49.084;13.694;2023-12-20T01:45:27;92955.09;;;6.11;71.65
84020;BME280;74102;49.084;13.694;2023-12-20T01:47:54;92975.03;;;6.10;71.74
84020;BME280;74102;49.084;13.694;2023-12-20T01:50:21;92985.38;;;6.02;72.46
84020;BME280;74102;49.084;13.694;2023-12-20T01:52:47;92995.25;;;5.99;71.93
84020;BME280;74102;49.084;13.694;2023-12-20T01:55:13;92999.28;;;5.93;71.90
84020;BME280;74102;49.084;13.694;2023-12-20T01:57:43;92997.88;;;5.81;72.55
84020;BME280;74102;49.084;13.694;2023-12-20T02:00:10;92998.16;;;5.78;71.64
84020;BME280;74102;49.084;13.694;2023-12-20T02:02:39;92977.41;;;5.78;71.98
84020;BME280;74102;49.084;13.694;2023-12-20T02:05:05;92971.53;;;5.68;72.28
84020;BME280;74102;49.084;13.694;2023-12-20T02:07:31;92958.47;;;5.60;72.46
84020;BME280;74102;49.084;13.694;2023-12-20T02:09:57;92966.25;;;5.60;72.49
84020;BME280;74102;49.084;13.694;2023-12-20T02:12:22;92975.69;;;5.61;71.96
84020;BME280;74102;49.084;13.694;2023-12-20T02:14:48;92968.25;;;5.66;71.38
84020;BME280;74102;49.084;13.694;2023-12-20T02:17:15;92963.13;;;5.48;72.33
84020;BME280;74102;49.084;13.694;2023-12-20T02:19:40;92967.47;;;5.48;72.00
84020;BME280;74102;49.084;13.694;2023-12-20T02:22:09;92951.06;;;5.39;71.73
84020;BME280;74102;49.084;13.694;2023-12-20T02:24:35;92951.81;;;5.31;71.58
84020;BME280;74102;49.084;13.694;2023-12-20T02:27:01;92952.47;;;5.33;71.56
84020;BME280;74102;49.084;13.694;2023-12-20T02:29:27;92957.34;;;5.37;71.64
84020;BME280;74102;49.084;13.694;2023-12-20T02:31:52;92943.28;;;5.39;70.72
84020;BME280;74102;49.084;13.694;2023-12-20T02:34:17;92941.47;;;5.40;71.51
84020;BME280;74102;49.084;13.694;2023-12-20T02:36:43;92951.06;;;5.39;71.15
84020;BME280;74102;49.084;13.694;2023-12-20T02:39:08;92948.47;;;5.39;70.96
84020;BME280;74102;49.084;13.694;2023-12-20T02:41:34;92950.75;;;5.42;70.89
84020;BME280;74102;49.084;13.694;2023-12-20T02:44:00;92936.66;;;5.45;70.74
84020;BME280;74102;49.084;13.694;2023-12-20T02:46:25;92927.25;;;5.44;70.68
84020;BME280;74102;49.084;13.694;2023-12-20T02:48:50;92922.75;;;5.46;70.31
84020;BME280;74102;49.084;13.694;2023-12-20T02:51:16;92913.03;;;5.48;69.82
84020;BME280;74102;49.084;13.694;2023-12-20T02:53:41;92903.47;;;5.48;69.74
84020;BME280;74102;49.084;13.694;2023-12-20T02:56:06;92916.28;;;5.50;69.56
84020;BME280;74102;49.084;13.694;2023-12-20T02:58:32;92909.16;;;5.52;69.83
84020;BME280;74102;49.084;13.694;2023-12-20T03:00:57;92909.81;;;5.54;69.48
84020;BME280;74102;49.084;13.694;2023-12-20T03:03:23;92903.00;;;5.53;69.92
84020;BME280;74102;49.084;13.694;2023-12-20T03:05:48;92895.53;;;5.50;69.41
84020;BME280;74102;49.084;13.694;2023-12-20T03:08:14;92896.50;;;5.49;69.53
84020;BME280;74102;49.084;13.694;2023-12-20T03:10:39;92897.47;;;5.48;69.63
84020;BME280;74102;49.084;13.694;2023-12-20T03:13:04;92893.09;;;5.48;68.64
84020;BME280;74102;49.084;13.694;2023-12-20T03:15:30;92900.72;;;5.50;69.55
84020;BME280;74102;49.084;13.694;2023-12-20T03:17:55;92889.22;;;5.52;69.45
84020;BME280;74102;49.084;13.694;2023-12-20T03:20:20;92895.81;;;5.47;69.54
84020;BME280;74102;49.084;13.694;2023-12-20T03:22:46;92883.66;;;5.39;70.28
84020;BME280;74102;49.084;13.694;2023-12-20T03:25:11;92898.38;;;5.39;69.85
84020;BME280;74102;49.084;13.694;2023-12-20T03:27:37;92898.38;;;5.39;70.50
84020;BME280;74102;49.084;13.694;2023-12-20T03:30:04;92908.38;;;5.33;70.62
84020;BME280;74102;49.084;13.694;2023-12-20T03:32:30;92890.84;;;5.27;71.06
84020;BME280;74102;49.084;13.694;2023-12-20T03:34:55;92887.59;;;5.25;70.91
84020;BME280;74102;49.084;13.694;2023-12-20T03:37:21;92885.66;;;5.27;70.69
84020;BME280;74102;49.084;13.694;2023-12-20T03:39:47;92892.47;;;5.28;70.48
84020;BME280;74102;49.084;13.694;2023-12-20T03:42:12;92903.16;;;5.25;70.82
84020;BME280;74102;49.084;13.694;2023-12-20T03:44:39;92889.50;;;5.23;70.60
84020;BME280;74102;49.084;13.694;2023-12-20T03:47:05;92890.53;;;5.30;71.05
84020;BME280;74102;49.084;13.694;2023-12-20T03:49:30;92900.47;;;5.35;70.07
84020;BME280;74102;49.084;13.694;2023-12-20T03:51:56;92899.19;;;5.39;69.86
84020;BME280;74102;49.084;13.694;2023-12-20T03:54:21;92887.72;;;5.42;69.74
84020;BME280;74102;49.084;13.694;2023-12-20T03:56:46;92876.66;;;5.40;70.56
84020;BME280;74102;49.084;13.694;2023-12-20T03:59:12;92877.78;;;5.37;70.37
84020;BME280;74102;49.084;13.694;2023-12-20T04:01:37;92870.00;;;5.37;69.33
84020;BME280;74102;49.084;13.694;2023-12-20T04:04:03;92870.16;;;5.36;70.01
84020;BME280;74102;49.084;13.694;2023-12-20T04:06:28;92876.63;;;5.31;69.48
84020;BME280;74102;49.084;13.694;2023-12-20T04:08:54;92861.88;;;5.32;69.80
84020;BME280;74102;49.084;13.694;2023-12-20T04:11:19;92859.81;;;5.36;70.19
84020;BME280;74102;49.084;13.694;2023-12-20T04:13:44;92845.06;;;5.36;70.46
84020;BME280;74102;49.084;13.694;2023-12-20T04:16:10;92848.13;;;5.40;70.37
84020;BME280;74102;49.084;13.694;2023-12-20T04:18:35;92844.28;;;5.44;70.63
84020;BME280;74102;49.084;13.694;2023-12-20T04:21:01;92844.13;;;5.45;70.98
84020;BME280;74102;49.084;13.694;2023-12-20T04:23:27;92833.91;;;5.44;70.77
84020;BME280;74102;49.084;13.694;2023-12-20T04:25:52;92843.63;;;5.42;70.99
84020;BME280;74102;49.084;13.694;2023-12-20T04:28:18;92850.38;;;5.35;71.49
84020;BME280;74102;49.084;13.694;2023-12-20T04:30:43;92857.44;;;5.24;71.10
84020;BME280;74102;49.084;13.694;2023-12-20T04:33:08;92860.00;;;5.16;71.38
84020;BME280;74102;49.084;13.694;2023-12-20T04:35:34;92867.56;;;5.10;72.08
84020;BME280;74102;49.084;13.694;2023-12-20T04:37:59;92871.94;;;5.09;72.19
84020;BME280;74102;49.084;13.694;2023-12-20T04:40:25;92865.88;;;5.01;72.31
84020;BME280;74102;49.084;13.694;2023-12-20T04:42:50;92880.22;;;4.95;71.84
84020;BME280;74102;49.084;13.694;2023-12-20T04:45:16;92877.00;;;4.93;72.60
84020;BME280;74102;49.084;13.694;2023-12-20T04:47:43;92866.94;;;4.90;71.57
84020;BME280;74102;49.084;13.694;2023-12-20T04:50:08;92865.88;;;4.83;72.80
84020;BME280;74102;49.084;13.694;2023-12-20T04:52:35;92867.84;;;4.81;72.62
84020;BME280;74102;49.084;13.694;2023-12-20T04:55:00;92874.91;;;4.79;72.71
84020;BME280;74102;49.084;13.694;2023-12-20T04:57:26;92885.56;;;4.76;73.16
84020;BME280;74102;49.084;13.694;2023-12-20T04:59:51;92891.00;;;4.65;73.13
84020;BME280;74102;49.084;13.694;2023-12-20T05:02:16;92878.47;;;4.60;73.07
84020;BME280;74102;49.084;13.694;2023-12-20T05:04:42;92887.97;;;4.52;74.05
84020;BME280;74102;49.084;13.694;2023-12-20T05:07:07;92887.22;;;4.42;74.17
84020;BME280;74102;49.084;13.694;2023-12-20T05:09:33;92894.44;;;4.38;74.48
84020;BME280;74102;49.084;13.694;2023-12-20T05:11:58;92892.69;;;4.39;74.02
84020;BME280;74102;49.084;13.694;2023-12-20T05:14:25;92902.63;;;4.34;74.47
84020;BME280;74102;49.084;13.694;2023-12-20T05:16:50;92906.09;;;4.24;74.80
84020;BME280;74102;49.084;13.694;2023-12-20T05:19:15;92915.63;;;4.24;74.52
84020;BME280;74102;49.084;13.694;2023-12-20T05:21:41;92913.97;;;4.33;73.75
84020;BME280;74102;49.084;13.694;2023-12-20T05:24:07;92906.63;;;4.28;74.36
84020;BME280;74102;49.084;13.694;2023-12-20T05:26:32;92917.81;;;4.29;74.13
84020;BME280;74102;49.084;13.694;2023-12-20T05:28:57;92924.91;;;4.27;74.34
84020;BME280;74102;49.084;13.694;2023-12-20T05:31:23;92915.88;;;4.31;74.29
84020;BME280;74102;49.084;13.694;2023-12-20T05:33:48;92932.81;;;4.25;74.00
84020;BME280;74102;49.084;13.694;2023-12-20T05:36:13;92927.94;;;4.22;74.31
84020;BME280;74102;49.084;13.694;2023-12-20T05:38:40;92936.50;;;4.22;74.63
84020;BME280;74102;49.084;13.694;2023-12-20T05:41:05;92924.22;;;4.24;73.91
84020;BME280;74102;49.084;13.694;2023-12-20T05:43:31;92930.50;;;4.22;75.23
84020;BME280;74102;49.084;13.694;2023-12-20T05:45:56;92924.09;;;4.26;74.36
84020;BME280;74102;49.084;13.694;2023-12-20T05:48:21;92925.69;;;4.27;75.39
84020;BME280;74102;49.084;13.694;2023-12-20T05:50:47;92914.78;;;4.33;74.96
84020;BME280;74102;49.084;13.694;2023-12-20T05:53:13;92921.06;;;4.31;74.67
84020;BME280;74102;49.084;13.694;2023-12-20T05:55:39;92925.28;;;4.32;74.98
84020;BME280;74102;49.084;13.694;2023-12-20T05:58:05;92924.03;;;4.36;74.78
84020;BME280;74102;49.084;13.694;2023-12-20T06:00:30;92940.22;;;4.38;74.12
84020;BME280;74102;49.084;13.694;2023-12-20T06:02:55;92931.22;;;4.42;75.00
84020;BME280;74102;49.084;13.694;2023-12-20T06:05:21;92924.78;;;4.46;74.94
84020;BME280;74102;49.084;13.694;2023-12-20T06:07:47;92926.28;;;4.48;74.62
84020;BME280;74102;49.084;13.694;2023-12-20T06:10:15;92930.50;;;4.49;75.02
84020;BME280;74102;49.084;13.694;2023-12-20T06:12:40;92935.50;;;4.51;74.21
84020;BME280;74102;49.084;13.694;2023-12-20T06:15:06;92922.56;;;4.51;74.66
84020;BME280;74102;49.084;13.694;2023-12-20T06:17:31;92936.47;;;4.50;74.94
84020;BME280;74102;49.084;13.694;2023-12-20T06:19:57;92931.97;;;4.52;74.44
84020;BME280;74102;49.084;13.694;2023-12-20T06:22:22;92939.44;;;4.55;74.76
84020;BME280;74102;49.084;13.694;2023-12-20T06:24:48;92946.53;;;4.53;74.91
84020;BME280;74102;49.084;13.694;2023-12-20T06:27:13;92949.50;;;4.58;74.98
84020;BME280;74102;49.084;13.694;2023-12-20T06:29:38;92949.22;;;4.61;74.68
84020;BME280;74102;49.084;13.694;2023-12-20T06:32:05;92945.69;;;4.62;75.11
84020;BME280;74102;49.084;13.694;2023-12-20T06:34:31;92938.88;;;4.61;75.05
84020;BME280;74102;49.084;13.694;2023-12-20T06:36:56;92939.00;;;4.59;75.22
84020;BME280;74102;49.084;13.694;2023-12-20T06:39:21;92947.06;;;4.56;74.29
84020;BME280;74102;49.084;13.694;2023-12-20T06:41:47;92945.59;;;4.54;74.23
84020;BME280;74102;49.084;13.694;2023-12-20T06:44:12;92949.81;;;4.55;74.14
84020;BME280;74102;49.084;13.694;2023-12-20T06:46:38;92950.09;;;4.52;74.02
84020;BME280;74102;49.084;13.694;2023-12-20T06:49:03;92956.22;;;4.51;73.90
84020;BME280;74102;49.084;13.694;2023-12-20T06:51:28;92965.94;;;4.49;73.27
84020;BME280;74102;49.084;13.694;2023-12-20T06:53:56;92966.59;;;4.51;73.02
84020;BME280;74102;49.084;13.694;2023-12-20T06:56:21;92972.44;;;4.53;73.29
84020;BME280;74102;49.084;13.694;2023-12-20T06:58:47;92976.81;;;4.52;73.10
84020;BME280;74102;49.084;13.694;2023-12-20T07:01:15;92976.00;;;4.52;72.98
84020;BME280;74102;49.084;13.694;2023-12-20T07:03:41;92982.13;;;4.51;73.32
84020;BME280;74102;49.084;13.694;2023-12-20T07:06:07;92982.78;;;4.53;73.27
84020;BME280;74102;49.084;13.694;2023-12-20T07:08:33;92999.97;;;4.54;73.36
84020;BME280;74102;49.084;13.694;2023-12-20T07:10:58;93009.06;;;4.58;73.86
84020;BME280;74102;49.084;13.694;2023-12-20T07:13:24;93002.41;;;4.55;73.40
84020;BME280;74102;49.084;13.694;2023-12-20T07:15:50;93006.78;;;4.55;73.49
84020;BME280;74102;49.084;13.694;2023-12-20T07:18:15;93012.25;;;4.52;71.58
84020;BME280;74102;49.084;13.694;2023-12-20T07:20:41;93015.59;;;4.35;70.72
84020;BME280;74102;49.084;13.694;2023-12-20T07:23:06;93020.00;;;4.24;71.38
84020;BME280;74102;49.084;13.694;2023-12-20T07:25:31;93027.91;;;4.23;70.86
84020;BME280;74102;49.084;13.694;2023-12-20T07:27:58;93021.63;;;4.25;72.41
84020;BME280;74102;49.084;13.694;2023-12-20T07:30:23;93019.41;;;4.31;72.10
84020;BME280;74102;49.084;13.694;2023-12-20T07:32:49;93016.69;;;4.32;72.21
84020;BME280;74102;49.084;13.694;2023-12-20T07:35:18;93002.94;;;4.32;70.88
84020;BME280;74102;49.084;13.694;2023-12-20T07:37:43;93010.31;;;4.27;70.83
84020;BME280;74102;49.084;13.694;2023-12-20T07:40:09;93009.63;;;4.24;72.62
84020;BME280;74102;49.084;13.694;2023-12-20T07:42:35;93020.53;;;4.28;71.93
84020;BME280;74102;49.084;13.694;2023-12-20T07:45:00;93034.16;;;4.30;70.79
84020;BME280;74102;49.084;13.694;2023-12-20T07:47:25;93030.75;;;4.30;71.65
84020;BME280;74102;49.084;13.694;2023-12-20T07:49:51;93034.94;;;4.31;72.80
84020;BME280;74102;49.084;13.694;2023-12-20T07:52:17;93040.41;;;4.28;72.46
84020;BME280;74102;49.084;13.694;2023-12-20T07:54:44;93019.69;;;4.28;70.87
84020;BME280;74102;49.084;13.694;2023-12-20T07:57:10;93011.28;;;4.25;71.43
84020;BME280;74102;49.084;13.694;2023-12-20T07:59:36;93019.69;;;4.28;71.67
84020;BME280;74102;49.084;13.694;2023-12-20T08:02:01;93024.75;;;4.29;71.72
84020;BME280;74102;49.084;13.694;2023-12-20T08:04:27;93032.50;;;4.29;71.86
84020;BME280;74102;49.084;13.694;2023-12-20T08:06:52;93039.19;;;4.32;71.18
84020;BME280;74102;49.084;13.694;2023-12-20T08:09:18;93030.59;;;4.31;71.42
84020;BME280;74102;49.084;13.694;2023-12-20T08:11:48;93033.72;;;4.35;71.94
84020;BME280;74102;49.084;13.694;2023-12-20T08:14:13;93031.13;;;4.35;71.67
84020;BME280;74102;49.084;13.694;2023-12-20T08:16:39;93040.81;;;4.33;71.55
84020;BME280;74102;49.084;13.694;2023-12-20T08:19:04;93047.88;;;4.31;70.83
84020;BME280;74102;49.084;13.694;2023-12-20T08:21:30;93060.53;;;4.34;71.25
84020;BME280;74102;49.084;13.694;2023-12-20T08:23:55;93055.78;;;4.39;71.03
84020;BME280;74102;49.084;13.694;2023-12-20T08:26:21;93047.44;;;4.45;71.23
84020;BME280;74102;49.084;13.694;2023-12-20T08:28:50;93056.72;;;4.38;69.30
84020;BME280;74102;49.084;13.694;2023-12-20T08:31:16;93056.75;;;4.28;69.51
84020;BME280;74102;49.084;13.694;2023-12-20T08:33:46;93069.97;;;4.25;69.85
84020;BME280;74102;49.084;13.694;2023-12-20T08:36:12;93079.50;;;4.24;69.59
84020;BME280;74102;49.084;13.694;2023-12-20T08:38:38;93077.22;;;4.21;69.46
84020;BME280;74102;49.084;13.694;2023-12-20T08:41:03;93069.88;;;4.17;69.98
84020;BME280;74102;49.084;13.694;2023-12-20T08:43:31;93073.84;;;4.11;70.02
84020;BME280;74102;49.084;13.694;2023-12-20T08:45:57;93082.94;;;4.15;69.83
84020;BME280;74102;49.084;13.694;2023-12-20T08:48:22;93080.50;;;4.23;69.50
84020;BME280;74102;49.084;13.694;2023-12-20T08:50:48;93075.84;;;4.17;69.43
84020;BME280;74102;49.084;13.694;2023-12-20T08:53:15;93081.88;;;4.08;69.81
84020;BME280;74102;49.084;13.694;2023-12-20T08:55:41;93080.66;;;4.12;70.79
84020;BME280;74102;49.084;13.694;2023-12-20T08:58:07;93085.13;;;4.20;71.12
84020;BME280;74102;49.084;13.694;2023-12-20T09:00:33;93074.25;;;4.16;69.77
84020;BME280;74102;49.084;13.694;2023-12-20T09:02:59;93091.13;;;4.20;69.79
84020;BME280;74102;49.084;13.694;2023-12-20T09:05:25;93076.97;;;4.15;70.26
84020;BME280;74102;49.084;13.694;2023-12-20T09:07:50;93065.78;;;4.14;70.65
84020;BME280;74102;49.084;13.694;2023-12-20T09:10:15;93071.13;;;4.13;70.33
84020;BME280;74102;49.084;13.694;2023-12-20T09:12:41;93074.25;;;4.16;70.46
84020;BME280;74102;49.084;13.694;2023-12-20T09:15:07;93079.13;;;4.19;69.67
84020;BME280;74102;49.084;13.694;2023-12-20T09:17:33;93059.00;;;4.13;69.49
84020;BME280;74102;49.084;13.694;2023-12-20T09:19:58;93082.31;;;4.04;70.02
84020;BME280;74102;49.084;13.694;2023-12-20T09:22:25;93086.78;;;4.02;70.35
84020;BME280;74102;49.084;13.694;2023-12-20T09:24:50;93077.53;;;3.99;70.22
84020;BME280;74102;49.084;13.694;2023-12-20T09:27:16;93073.72;;;4.03;70.30
84020;BME280;74102;49.084;13.694;2023-12-20T09:29:41;93071.97;;;4.04;69.51
84020;BME280;74102;49.084;13.694;2023-12-20T09:32:07;93065.69;;;4.06;69.87
84020;BME280;74102;49.084;13.694;2023-12-20T09:34:33;93062.00;;;4.09;70.17
84020;BME280;74102;49.084;13.694;2023-12-20T09:36:58;93058.03;;;4.14;69.76
84020;BME280;74102;49.084;13.694;2023-12-20T09:39:24;93050.78;;;4.18;70.27
84020;BME280;74102;49.084;13.694;2023-12-20T09:42:03;93046.72;;;4.15;69.61
84020;BME280;74102;49.084;13.694;2023-12-20T09:44:30;93047.00;;;4.12;69.76
84020;BME280;74102;49.084;13.694;2023-12-20T09:46:56;93040.47;;;4.08;69.52
84020;BME280;74102;49.084;13.694;2023-12-20T09:49:22;93038.47;;;4.02;69.66
84020;BME280;74102;49.084;13.694;2023-12-20T09:51:50;93026.34;;;4.03;69.51
84020;BME280;74102;49.084;13.694;2023-12-20T09:54:19;93023.63;;;4.04;69.62
84020;BME280;74102;49.084;13.694;2023-12-20T09:56:45;93024.56;;;4.03;69.86
84020;BME280;74102;49.084;13.694;2023-12-20T09:59:11;93024.66;;;4.11;70.26
84020;BME280;74102;49.084;13.694;2023-12-20T10:01:38;93026.56;;;4.19;69.63
84020;BME280;74102;49.084;13.694;2023-12-20T10:04:09;93022.97;;;4.30;69.84
84020;BME280;74102;49.084;13.694;2023-12-20T10:06:43;93024.31;;;4.34;69.09
84020;BME280;74102;49.084;13.694;2023-12-20T10:09:10;93015.00;;;4.41;69.01
84020;BME280;74102;49.084;13.694;2023-12-20T10:11:36;93022.13;;;4.39;69.07
84020;BME280;74102;49.084;13.694;2023-12-20T10:14:06;93028.66;;;4.43;68.99
84020;BME280;74102;49.084;13.694;2023-12-20T10:16:32;93034.63;;;4.43;69.22
84020;BME280;74102;49.084;13.694;2023-12-20T10:18:58;93042.25;;;4.45;69.08
84020;BME280;74102;49.084;13.694;2023-12-20T10:21:24;93038.31;;;4.41;68.80
84020;BME280;74102;49.084;13.694;2023-12-20T10:23:55;93036.00;;;4.38;68.82
84020;BME280;74102;49.084;13.694;2023-12-20T10:26:25;93036.59;;;4.32;69.21
84020;BME280;74102;49.084;13.694;2023-12-20T10:28:54;93031.94;;;4.35;69.11
84020;BME280;74102;49.084;13.694;2023-12-20T10:31:38;93041.19;;;4.38;69.35
84020;BME280;74102;49.084;13.694;2023-12-20T10:34:04;93039.28;;;4.40;70.02
84020;BME280;74102;49.084;13.694;2023-12-20T10:36:31;93040.53;;;4.36;70.84
84020;BME280;74102;49.084;13.694;2023-12-20T10:38:57;93040.41;;;4.28;70.94
84020;BME280;74102;49.084;13.694;2023-12-20T10:41:28;93030.91;;;4.18;71.05
84020;BME280;74102;49.084;13.694;2023-12-20T10:44:03;93027.09;;;4.22;71.53
84020;BME280;74102;49.084;13.694;2023-12-20T10:46:30;93015.91;;;4.22;71.89
84020;BME280;74102;49.084;13.694;2023-12-20T10:48:57;93036.38;;;4.15;70.94
84020;BME280;74102;49.084;13.694;2023-12-20T10:51:23;93018.28;;;4.06;71.38
84020;BME280;74102;49.084;13.694;2023-12-20T10:53:52;93021.41;;;4.09;72.31
84020;BME280;74102;49.084;13.694;2023-12-20T10:56:19;93021.09;;;4.22;72.41
84020;BME280;74102;49.084;13.694;2023-12-20T10:58:45;93017.84;;;4.20;72.52
84020;BME280;74102;49.084;13.694;2023-12-20T11:01:13;93016.44;;;4.25;72.62
84020;BME280;74102;49.084;13.694;2023-12-20T11:03:43;93019.69;;;4.28;72.83
84020;BME280;74102;49.084;13.694;2023-12-20T11:06:49;93024.88;;;4.28;72.89
84020;BME280;74102;49.084;13.694;2023-12-20T11:09:28;93012.72;;;4.38;71.99
84020;BME280;74102;49.084;13.694;2023-12-20T11:12:04;93008.78;;;4.34;72.54
84020;BME280;74102;49.084;13.694;2023-12-20T11:14:50;93011.28;;;4.25;72.46
84020;BME280;74102;49.084;13.694;2023-12-20T11:17:16;93002.28;;;4.30;72.12
84020;BME280;74102;49.084;13.694;2023-12-20T11:22:24;92992.50;;;4.23;71.70
84020;BME280;74102;49.084;13.694;2023-12-20T11:24:51;92991.91;;;4.30;71.76
84020;BME280;74102;49.084;13.694;2023-12-20T11:27:18;92986.06;;;4.28;71.36
84020;BME280;74102;49.084;13.694;2023-12-20T11:29:51;92988.28;;;4.22;71.05
84020;BME280;74102;49.084;13.694;2023-12-20T11:35:01;92996.69;;;4.24;70.20
84020;BME280;74102;49.084;13.694;2023-12-20T11:37:41;92998.03;;;4.29;70.75
84020;BME280;74102;49.084;13.694;2023-12-20T11:40:14;93010.13;;;4.38;70.31
84020;BME280;74102;49.084;13.694;2023-12-20T11:42:41;93008.06;;;4.41;71.05
84020;BME280;74102;49.084;13.694;2023-12-20T11:45:10;93003.72;;;4.42;69.96
84020;BME280;74102;49.084;13.694;2023-12-20T11:47:36;92999.47;;;4.41;70.08
84020;BME280;74102;49.084;13.694;2023-12-20T11:50:02;92990.28;;;4.29;69.10
84020;BME280;74102;49.084;13.694;2023-12-20T11:52:29;93005.72;;;4.20;68.88
84020;BME280;74102;49.084;13.694;2023-12-20T11:54:55;92994.69;;;4.18;69.27
84020;BME280;74102;49.084;13.694;2023-12-20T11:57:21;92989.78;;;4.15;69.37
84020;BME280;74102;49.084;13.694;2023-12-20T11:59:46;93000.72;;;4.09;69.73
84020;BME280;74102;49.084;13.694;2023-12-20T12:02:12;92980.31;;;4.06;68.38
84020;BME280;74102;49.084;13.694;2023-12-20T12:04:37;92998.41;;;4.06;68.89
84020;BME280;74102;49.084;13.694;2023-12-20T12:07:03;92989.88;;;3.96;68.32
84020;BME280;74102;49.084;13.694;2023-12-20T12:09:28;92983.06;;;3.95;67.98
84020;BME280;74102;49.084;13.694;2023-12-20T12:11:54;93010.19;;;3.91;66.71
84020;BME280;74102;49.084;13.694;2023-12-20T12:14:20;92992.34;;;3.88;67.49
84020;BME280;74102;49.084;13.694;2023-12-20T12:16:46;92981.72;;;3.91;66.87
84020;BME280;74102;49.084;13.694;2023-12-20T12:19:21;92991.00;;;3.84;66.77
84020;BME280;74102;49.084;13.694;2023-12-20T12:21:47;92978.06;;;3.84;67.05
84020;BME280;74102;49.084;13.694;2023-12-20T12:24:12;92987.19;;;3.88;66.98
84020;BME280;74102;49.084;13.694;2023-12-20T12:26:38;92980.38;;;3.87;66.71
84020;BME280;74102;49.084;13.694;2023-12-20T12:29:03;92975.78;;;3.81;67.10
84020;BME280;74102;49.084;13.694;2023-12-20T12:31:30;92968.56;;;3.75;66.17
84020;BME280;74102;49.084;13.694;2023-12-20T12:33:55;92972.78;;;3.76;66.21
84020;BME280;74102;49.084;13.694;2023-12-20T12:36:21;92978.22;;;3.73;66.25
84020;BME280;74102;49.084;13.694;2023-12-20T12:38:46;92969.81;;;3.71;66.17
84020;BME280;74102;49.084;13.694;2023-12-20T12:41:15;92958.91;;;3.77;66.27
84020;BME280;74102;49.084;13.694;2023-12-20T12:43:40;92968.38;;;3.86;65.95
84020;BME280;74102;49.084;13.694;2023-12-20T12:46:06;92965.63;;;3.97;66.45
84020;BME280;74102;49.084;13.694;2023-12-20T12:48:32;92965.34;;;4.00;65.66
84020;BME280;74102;49.084;13.694;2023-12-20T12:50:59;92962.09;;;3.89;64.34
84020;BME280;74102;49.084;13.694;2023-12-20T12:53:25;92969.75;;;3.90;64.25
84020;BME280;74102;49.084;13.694;2023-12-20T12:55:52;92975.06;;;3.79;62.29
84020;BME280;74102;49.084;13.694;2023-12-20T12:58:17;92974.69;;;3.74;62.91
84020;BME280;74102;49.084;13.694;2023-12-20T13:00:42;92984.25;;;3.64;61.97